PWSweather.com
Personal Weather Stations
Station Observations
ON7DKEWX
Knokke Heist, Knokke HeistBE 8300

Knokke HeistKnokke HeistBE 8300

Lat: 51.32199, Lon: 3.28778

Elevation: 5

Station Type: Davis Vantage Pro 2

www.weerstationheist.be

High Low Average
Temperature 66.4°F19.1°C 59.4°F15.2°C 62.1°F16.7°C
Dew Point 60.8°F16.0°C 57.7°F14.3°C 58.8°F14.9°C
Winds 6.9 mph 11.1 kmh 1.2 mph 1.9 kmh 4.0 mph NW6.4 kmh NW
Wind Gusts 16.1 mph25.9 kmh 2.3 mph3.7 kmh 7.0 mph11.3 kmh
Humidity 96% 81% 89%
Pressure 29.95 in1014.2 mb 29.91 in1012.9 mb -
Precipitation 0.00 in0.0 mm - -
Hour Temp Dew Point Humidity Winds Wind Gusts Pressure Precip Precip Rate Daily Precip Total
12:00 AM 60.0°F15.6°C 58.6°F14.8°C 95% 2.3 mph NNW3.7 kmh NNW 4.6 mph7.4 kmh 29.95 in1014.2 mb - 0.00 in0.0 mm 0.00 in0.0 mm
01:00 AM 59.6°F15.3°C 58.2°F14.6°C 95% 3.5 mph NNW5.6 kmh NNW 5.8 mph9.3 kmh 29.93 in1013.5 mb - 0.00 in0.0 mm 0.00 in0.0 mm
02:00 AM 59.9°F15.5°C 58.7°F14.8°C 96% 4.6 mph NNW7.4 kmh NNW 8.1 mph13.0 kmh 29.93 in1013.5 mb - 0.00 in0.0 mm 0.00 in0.0 mm
03:00 AM 59.7°F15.4°C 58.6°F14.8°C 96% 2.3 mph NW3.7 kmh NW 5.8 mph9.3 kmh 29.93 in1013.5 mb - 0.00 in0.0 mm 0.00 in0.0 mm
04:00 AM 59.5°F15.3°C 58.4°F14.7°C 96% 2.3 mph N3.7 kmh N 2.3 mph3.7 kmh 29.93 in1013.5 mb - 0.00 in0.0 mm 0.00 in0.0 mm
05:00 AM 59.4°F15.2°C 58.3°F14.6°C 96% 3.5 mph N5.6 kmh N 4.6 mph7.4 kmh 29.92 in1013.2 mb - 0.00 in0.0 mm 0.00 in0.0 mm
06:00 AM 59.5°F15.3°C 58.1°F14.5°C 95% 1.2 mph N1.9 kmh N 3.5 mph5.6 kmh 29.92 in1013.2 mb - 0.00 in0.0 mm 0.00 in0.0 mm
07:00 AM 60.4°F15.8°C 59.0°F15.0°C 95% 3.5 mph N5.6 kmh N 4.6 mph7.4 kmh 29.93 in1013.5 mb - 0.00 in0.0 mm 0.00 in0.0 mm
08:00 AM 61.6°F16.4°C 59.3°F15.2°C 92% 2.3 mph NNW3.7 kmh NNW 5.8 mph9.3 kmh 29.94 in1013.9 mb - 0.00 in0.0 mm 0.00 in0.0 mm
09:00 AM 64.3°F17.9°C 60.7°F15.9°C 88% 4.6 mph N7.4 kmh N 5.8 mph9.3 kmh 29.94 in1013.9 mb - 0.00 in0.0 mm 0.00 in0.0 mm
10:00 AM 66.1°F18.9°C 60.8°F16.0°C 83% 4.6 mph NW7.4 kmh NW 5.8 mph9.3 kmh 29.93 in1013.5 mb - 0.00 in0.0 mm 0.00 in0.0 mm
11:00 AM 66.4°F19.1°C 60.4°F15.8°C 81% 5.8 mph NW9.3 kmh NW 5.8 mph9.3 kmh 29.95 in1014.2 mb - 0.00 in0.0 mm 0.00 in0.0 mm
12:00 PM 66.1°F18.9°C 60.1°F15.6°C 81% 4.6 mph N7.4 kmh N 5.8 mph9.3 kmh 29.95 in1014.2 mb - 0.00 in0.0 mm 0.00 in0.0 mm
01:00 PM 64.9°F18.3°C 59.3°F15.2°C 82% 4.6 mph NNW7.4 kmh NNW 12.7 mph20.4 kmh 29.95 in1014.2 mb - 0.00 in0.0 mm 0.00 in0.0 mm
02:00 PM 64.9°F18.3°C 59.3°F15.2°C 82% 4.6 mph NNW7.4 kmh NNW 8.1 mph13.0 kmh 29.95 in1014.2 mb - 0.00 in0.0 mm 0.00 in0.0 mm
03:00 PM 64.6°F18.1°C 59.0°F15.0°C 82% 6.9 mph NW11.1 kmh NW 13.8 mph22.2 kmh 29.94 in1013.9 mb - 0.00 in0.0 mm 0.00 in0.0 mm
04:00 PM 63.8°F17.7°C 58.5°F14.7°C 83% 6.9 mph NNW11.1 kmh NNW 10.4 mph16.7 kmh 29.94 in1013.9 mb - 0.00 in0.0 mm 0.00 in0.0 mm
05:00 PM 63.7°F17.6°C 58.4°F14.7°C 83% 6.9 mph NW11.1 kmh NW 16.1 mph25.9 kmh 29.92 in1013.2 mb - 0.00 in0.0 mm 0.00 in0.0 mm
06:00 PM 62.9°F17.2°C 58.4°F14.7°C 85% 3.5 mph NNW5.6 kmh NNW 12.7 mph20.4 kmh 29.91 in1012.9 mb - 0.00 in0.0 mm 0.00 in0.0 mm
07:00 PM 61.8°F16.6°C 58.2°F14.6°C 88% 4.6 mph N7.4 kmh N 10.4 mph16.7 kmh 29.91 in1012.9 mb - 0.00 in0.0 mm 0.00 in0.0 mm
08:00 PM 61.2°F16.2°C 58.0°F14.4°C 89% 2.3 mph N3.7 kmh N 5.8 mph9.3 kmh 29.93 in1013.5 mb - 0.00 in0.0 mm 0.00 in0.0 mm
09:00 PM 60.7°F15.9°C 57.7°F14.3°C 90% 3.5 mph N5.6 kmh N 9.2 mph14.8 kmh 29.94 in1013.9 mb - 0.00 in0.0 mm 0.00 in0.0 mm
10:00 PM 60.3°F15.7°C 58.0°F14.4°C 92% 3.5 mph N5.6 kmh N 5.8 mph9.3 kmh 29.94 in1013.9 mb - 0.00 in0.0 mm 0.00 in0.0 mm
11:00 PM 60.2°F15.7°C 57.9°F14.4°C 92% 3.5 mph N5.6 kmh N 5.8 mph9.3 kmh 29.94 in1013.9 mb - 0.00 in0.0 mm 0.00 in0.0 mm